Terminal Aerodrome Forecast
Issued by NWS Wichita, KS

Home | Current Version | Previous Version | Text Only | Print | Product List | Glossary On
Versions: 1 2 3 4 5 6 7 8 9 10 11 12 13 14 15 16 17
595
FTUS43 KICT 292204 AAB
TAFICT
TAF AMD
KICT 292204Z 2922/3018 03012G20KT 4SM -RA BR OVC007
      TEMPO 3010/3014 2SM BR OVC004
     FM301600 24012KT P6SM OVC008=

USA.gov is the U.S. government's official web portal to all federal, state and local government web resources and services.